Time;durP1;ratioP1;P1;durP2;ratioP2;P2;SDS_P1;SDS_P2;PMS_P1;PMS_P2;Temp;Humidity;BMP_temperature;BMP_pressure;BME280_temperature;BME280_humidity;BME280_pressure;Samples;Min_cycle;Max_cycle;Signal;HPM_P1;HPM_P2
2024/03/14 00:01:06;;;;;;;5.18;4.47;;;7.60;99.90;;;;;;4871846;29;20209;-83
2024/03/14 00:03:37;;;;;;;4.05;2.85;;;7.60;99.90;;;;;;4879679;29;20215;-85
2024/03/14 00:06:10;;;;;;;4.05;3.78;;;7.90;99.90;;;;;;4877615;29;20427;-83
2024/03/14 00:08:37;;;;;;;8.48;4.18;;;7.70;99.90;;;;;;4866552;29;20213;-83
2024/03/14 00:11:06;;;;;;;3.65;3.45;;;7.60;99.90;;;;;;4875277;29;20260;-84
2024/03/14 00:13:34;;;;;;;4.45;4.20;;;7.70;99.90;;;;;;4872466;29;20608;-82
2024/03/14 00:16:01;;;;;;;7.32;6.93;;;7.70;99.90;;;;;;4876845;29;20649;-83
2024/03/14 00:18:31;;;;;;;6.65;6.05;;;7.60;99.90;;;;;;4872535;29;20206;-83
2024/03/14 00:21:01;;;;;;;2.58;2.47;;;7.50;99.90;;;;;;4872091;29;20214;-82
2024/03/14 00:23:28;;;;;;;5.63;5.32;;;7.50;99.90;;;;;;4876191;29;20217;-83
2024/03/14 00:25:59;;;;;;;3.25;3.13;;;7.50;99.90;;;;;;4868948;29;20261;-83
2024/03/14 00:28:26;;;;;;;3.50;3.30;;;7.60;99.90;;;;;;4878428;29;20499;-82
2024/03/14 00:30:59;;;;;;;5.10;3.40;;;7.60;99.90;;;;;;4872175;29;20408;-81
2024/03/14 00:33:26;;;;;;;4.80;4.47;;;7.60;99.90;;;;;;4871741;29;20221;-83
2024/03/14 00:35:54;;;;;;;3.72;3.40;;;7.70;99.90;;;;;;4866953;29;20202;-84
2024/03/14 00:38:20;;;;;;;3.53;3.22;;;7.80;99.90;;;;;;4869782;29;20270;-84
2024/03/14 00:40:53;;;;;;;2.80;2.60;;;7.80;99.90;;;;;;4871668;29;20470;-84
2024/03/14 00:43:24;;;;;;;4.15;3.85;;;7.70;99.90;;;;;;4874156;29;20223;-83
2024/03/14 00:45:52;;;;;;;4.90;4.65;;;7.70;99.90;;;;;;4871796;29;20386;-83
2024/03/14 00:48:19;;;;;;;3.88;3.67;;;7.60;99.90;;;;;;4876325;29;20220;-84
2024/03/14 00:50:49;;;;;;;2.63;2.42;;;7.60;99.90;;;;;;4868472;29;20206;-81
2024/03/14 00:53:16;;;;;;;3.53;3.33;;;7.60;99.90;;;;;;4866076;29;20198;-81
2024/03/14 00:55:43;;;;;;;3.83;3.15;;;7.60;99.90;;;;;;4869201;29;20211;-81
2024/03/14 00:58:11;;;;;;;5.47;5.03;;;7.50;99.90;;;;;;4869672;29;20211;-82
2024/03/14 01:00:38;;;;;;;6.53;5.10;;;7.50;99.90;;;;;;4866216;29;20206;-81
2024/03/14 01:03:05;;;;;;;4.47;4.10;;;7.70;99.90;;;;;;4860131;29;20210;-82
2024/03/14 01:05:33;;;;;;;2.40;2.30;;;7.70;99.90;;;;;;4868934;29;20516;-82
2024/03/14 01:08:00;;;;;;;4.82;4.53;;;7.60;99.90;;;;;;4870945;29;20220;-82
2024/03/14 01:10:28;;;;;;;6.57;6.07;;;7.60;99.90;;;;;;4870551;29;20273;-83
2024/03/14 01:12:55;;;;;;;2.60;2.50;;;7.60;99.90;;;;;;4870077;29;20337;-82
2024/03/14 01:15:22;;;;;;;3.95;3.40;;;7.50;99.90;;;;;;4869810;29;20222;-83
2024/03/14 01:17:54;;;;;;;7.60;4.25;;;7.50;99.90;;;;;;4868711;29;20209;-82
2024/03/14 01:20:21;;;;;;;3.83;3.47;;;7.50;99.90;;;;;;4867802;29;20217;-83
2024/03/14 01:22:50;;;;;;;3.88;3.63;;;7.60;99.90;;;;;;4864601;29;20277;-82
2024/03/14 01:25:16;;;;;;;3.38;3.17;;;7.60;99.90;;;;;;4867043;29;20285;-82
2024/03/14 01:27:46;;;;;;;5.60;5.32;;;7.70;99.90;;;;;;4870748;29;20202;-81
2024/03/14 01:30:16;;;;;;;2.00;1.90;;;7.70;99.90;;;;;;4872017;29;20190;-85
2024/03/14 01:32:43;;;;;;;3.35;3.20;;;7.60;99.90;;;;;;4882899;29;20258;-85
2024/03/14 01:35:10;;;;;;;3.70;3.40;;;7.60;99.90;;;;;;4883666;29;20236;-85
2024/03/14 01:37:39;;;;;;;4.40;4.10;;;7.60;99.90;;;;;;4894698;29;20205;-85
2024/03/14 01:40:07;;;;;;;3.08;2.97;;;7.70;99.90;;;;;;4879496;29;20217;-85
2024/03/14 01:42:37;;;;;;;2.65;1.85;;;7.60;99.90;;;;;;4878855;29;20403;-85
2024/03/14 01:45:15;;;;;;;4.53;4.22;;;7.60;99.90;;;;;;4878744;29;20213;-85
2024/03/14 01:47:47;;;;;;;7.25;3.90;;;7.60;99.90;;;;;;4866851;29;20211;-85
2024/03/14 01:50:15;;;;;;;5.68;5.20;;;7.50;99.90;;;;;;4871169;29;20526;-83
2024/03/14 01:52:44;;;;;;;5.72;5.38;;;7.60;99.90;;;;;;4867874;29;20464;-82
2024/03/14 01:55:15;;;;;;;5.03;4.72;;;7.60;99.90;;;;;;4865320;29;20210;-83
2024/03/14 01:57:45;;;;;;;4.53;4.32;;;7.60;99.90;;;;;;4862467;29;20237;-84
2024/03/14 02:00:18;;;;;;;5.93;5.53;;;7.60;99.90;;;;;;4870264;29;20237;-84
2024/03/14 02:02:49;;;;;;;4.85;4.65;;;7.60;99.90;;;;;;4877783;29;20268;-83
2024/03/14 02:05:31;;;;;;;3.80;3.63;;;7.50;99.90;;;;;;4871090;29;20208;-83
2024/03/14 02:07:59;;;;;;;6.15;5.75;;;7.60;99.90;;;;;;4871034;29;20229;-83
2024/03/14 02:10:26;;;;;;;2.85;2.65;;;7.40;99.90;;;;;;4866657;29;20238;-83
2024/03/14 02:12:59;;;;;;;3.67;3.47;;;7.40;99.90;;;;;;4869050;29;20258;-83
2024/03/14 02:15:26;;;;;;;7.70;6.97;;;7.40;99.90;;;;;;4872575;29;20245;-83
2024/03/14 02:17:57;;;;;;;3.80;3.50;;;7.40;99.90;;;;;;4864882;29;20271;-83
2024/03/14 02:20:27;;;;;;;5.90;5.50;;;7.50;99.90;;;;;;4876361;29;20213;-82
2024/03/14 02:22:54;;;;;;;3.50;3.30;;;7.40;99.90;;;;;;4875451;29;20228;-82
2024/03/14 02:25:25;;;;;;;3.88;3.55;;;7.40;99.90;;;;;;4864416;29;20518;-81
2024/03/14 02:27:53;;;;;;;10.23;7.90;;;7.40;99.90;;;;;;4860022;29;20218;-82
2024/03/14 02:30:23;;;;;;;4.93;4.53;;;7.40;99.90;;;;;;4875974;29;20214;-83
2024/03/14 02:32:51;;;;;;;2.95;2.80;;;7.40;99.90;;;;;;4866970;29;20234;-83
2024/03/14 02:35:20;;;;;;;5.97;5.57;;;7.40;99.90;;;;;;4862356;29;20297;-82
2024/03/14 02:37:47;;;;;;;4.70;4.47;;;7.40;99.90;;;;;;4876711;29;20519;-83
2024/03/14 02:40:15;;;;;;;3.17;2.90;;;7.40;99.90;;;;;;4892104;29;20221;-83
2024/03/14 02:42:42;;;;;;;2.88;2.67;;;7.50;99.90;;;;;;4898031;29;20516;-82
2024/03/14 02:45:14;;;;;;;1.70;1.60;;;7.40;99.90;;;;;;4883848;29;20222;-82
2024/03/14 02:47:45;;;;;;;2.53;2.42;;;7.30;99.90;;;;;;4877781;29;20230;-81
2024/03/14 02:50:12;;;;;;;7.30;4.65;;;7.40;99.90;;;;;;4872746;29;20201;-81
2024/03/14 02:52:39;;;;;;;10.70;5.68;;;7.40;99.90;;;;;;4868119;29;20245;-82
2024/03/14 02:55:08;;;;;;;4.15;3.00;;;7.40;99.90;;;;;;4866878;29;20241;-81
2024/03/14 02:57:36;;;;;;;4.28;3.83;;;7.40;99.90;;;;;;4865647;29;20214;-82
2024/03/14 03:00:14;;;;;;;10.18;7.10;;;7.50;99.90;;;;;;4871981;29;20210;-81
2024/03/14 03:02:44;;;;;;;3.90;3.70;;;7.40;99.90;;;;;;4863549;29;20206;-82
2024/03/14 03:05:12;;;;;;;9.27;5.75;;;7.40;99.90;;;;;;4866308;29;20212;-82
2024/03/14 03:07:39;;;;;;;4.78;4.35;;;7.40;99.90;;;;;;4864821;29;20218;-81
2024/03/14 03:10:07;;;;;;;2.92;2.83;;;7.40;99.90;;;;;;4860409;29;20211;-83
2024/03/14 03:12:39;;;;;;;6.47;5.90;;;7.30;99.90;;;;;;4861992;29;20249;-82
2024/03/14 03:15:10;;;;;;;7.57;5.70;;;7.30;99.90;;;;;;4862489;29;20220;-81
2024/03/14 03:17:38;;;;;;;5.13;4.75;;;7.20;99.90;;;;;;4865750;29;20433;-82
2024/03/14 03:20:10;;;;;;;2.90;2.80;;;7.30;99.90;;;;;;4860748;29;20214;-81
2024/03/14 03:25:25;;;;;;;3.08;2.65;;;7.30;99.90;;;;;;4861564;29;20507;-81
2024/03/14 03:27:52;;;;;;;5.32;4.88;;;7.30;99.90;;;;;;4859481;29;20241;-83
2024/03/14 03:30:19;;;;;;;7.82;7.13;;;7.30;99.90;;;;;;4870121;29;20287;-84
2024/03/14 03:32:46;;;;;;;7.90;6.93;;;7.30;99.90;;;;;;4858864;29;20252;-83
2024/03/14 03:35:18;;;;;;;4.55;4.25;;;7.30;99.90;;;;;;4871205;29;20214;-84
2024/03/14 03:37:48;;;;;;;4.90;3.78;;;7.30;99.90;;;;;;4871566;29;20209;-82
2024/03/14 03:40:29;;;;;;;5.40;5.10;;;7.30;99.90;;;;;;4877578;29;20197;-81
2024/03/14 03:42:58;;;;;;;3.35;3.03;;;7.20;99.90;;;;;;4879670;29;20213;-82
2024/03/14 03:45:26;;;;;;;6.65;6.25;;;7.30;99.90;;;;;;4873449;29;20217;-84
2024/03/14 03:47:54;;;;;;;3.75;3.47;;;7.30;99.90;;;;;;4874291;29;20203;-82
2024/03/14 03:50:26;;;;;;;4.38;4.18;;;7.30;99.90;;;;;;4884609;29;20308;-84
2024/03/14 03:52:59;;;;;;;2.67;2.47;;;7.30;99.90;;;;;;4889899;29;20446;-84
2024/03/14 03:55:26;;;;;;;4.85;4.40;;;7.30;99.90;;;;;;4905084;29;20201;-83
2024/03/14 03:57:54;;;;;;;6.63;5.10;;;7.30;99.90;;;;;;4899061;29;20237;-84
2024/03/14 04:00:33;;;;;;;10.63;3.83;;;7.40;99.90;;;;;;4877623;29;20210;-83
2024/03/14 04:03:07;;;;;;;4.22;4.03;;;7.30;99.90;;;;;;4871083;29;20269;-84
2024/03/14 04:05:37;;;;;;;4.47;4.25;;;7.20;99.90;;;;;;4867641;29;20229;-84
2024/03/14 04:08:06;;;;;;;7.57;5.03;;;7.30;99.90;;;;;;4869381;29;20217;-85
2024/03/14 04:10:36;;;;;;;4.80;4.50;;;7.30;99.90;;;;;;4886349;29;20288;-84
2024/03/14 04:13:04;;;;;;;4.20;3.80;;;7.30;99.90;;;;;;4884136;29;20334;-84
2024/03/14 04:15:33;;;;;;;3.38;3.17;;;7.30;99.90;;;;;;4859773;29;20207;-83
2024/03/14 04:18:05;;;;;;;4.32;4.03;;;7.30;99.90;;;;;;4871867;29;20214;-82
2024/03/14 04:20:37;;;;;;;6.47;3.85;;;7.20;99.90;;;;;;4872506;29;20284;-81
2024/03/14 04:23:06;;;;;;;3.85;3.65;;;7.20;99.90;;;;;;4872019;29;20234;-81
2024/03/14 04:25:35;;;;;;;3.15;3.00;;;7.30;99.90;;;;;;4863224;29;20528;-81
2024/03/14 04:28:07;;;;;;;6.63;2.75;;;7.30;99.90;;;;;;4864111;29;20502;-83
2024/03/14 04:30:38;;;;;;;4.68;4.38;;;7.20;99.90;;;;;;4863502;29;20435;-81
2024/03/14 04:33:07;;;;;;;3.63;3.53;;;7.20;99.90;;;;;;4857776;29;20248;-81
2024/03/14 04:35:35;;;;;;;6.07;4.63;;;7.20;99.90;;;;;;4858569;29;20274;-81
2024/03/14 04:38:02;;;;;;;5.32;4.93;;;7.30;99.90;;;;;;4862250;29;20555;-81
2024/03/14 04:40:29;;;;;;;3.70;3.45;;;7.20;99.90;;;;;;4867007;29;20281;-82
2024/03/14 04:42:57;;;;;;;2.45;2.35;;;7.20;99.90;;;;;;4863394;29;20226;-82
2024/03/14 04:45:24;;;;;;;3.40;3.25;;;7.20;99.90;;;;;;4860976;29;20289;-81
2024/03/14 04:47:52;;;;;;;10.13;6.60;;;7.20;99.90;;;;;;4861146;29;20214;-83
2024/03/14 04:50:21;;;;;;;6.30;5.90;;;7.30;99.90;;;;;;4861521;29;20216;-83
2024/03/14 04:52:49;;;;;;;5.60;5.22;;;7.30;99.90;;;;;;4868537;29;20230;-82
2024/03/14 04:55:20;;;;;;;3.13;3.03;;;7.30;99.90;;;;;;4860751;29;20451;-82
2024/03/14 04:57:47;;;;;;;7.53;6.97;;;7.30;99.90;;;;;;4865642;29;20282;-83
2024/03/14 05:02:51;;;;;;;5.95;2.50;;;7.20;99.90;;;;;;4858626;29;20218;-85
2024/03/14 05:05:20;;;;;;;5.55;3.63;;;7.20;99.90;;;;;;4866844;29;20213;-87
2024/03/14 05:07:50;;;;;;;4.20;4.00;;;7.20;99.90;;;;;;4870681;29;20206;-87
2024/03/14 05:10:23;;;;;;;6.28;5.80;;;7.20;99.90;;;;;;4871847;29;20514;-86
2024/03/14 05:12:50;;;;;;;5.10;4.80;;;7.20;99.90;;;;;;4870683;29;20259;-87
2024/03/14 05:15:19;;;;;;;6.00;5.60;;;7.20;99.90;;;;;;4866358;29;20259;-87
2024/03/14 05:17:48;;;;;;;2.30;2.20;;;7.20;99.90;;;;;;4873925;29;20214;-87
2024/03/14 05:20:18;;;;;;;4.75;4.47;;;7.20;99.90;;;;;;4873040;29;20209;-87
2024/03/14 05:22:50;;;;;;;7.88;7.30;;;7.20;99.90;;;;;;4870088;29;20695;-88
2024/03/14 05:25:21;;;;;;;3.97;3.88;;;7.20;99.90;;;;;;4866954;29;20586;-88
2024/03/14 05:27:52;;;;;;;17.55;4.68;;;7.20;99.90;;;;;;4863044;29;20313;-87
2024/03/14 05:30:23;;;;;;;3.83;3.63;;;7.20;99.90;;;;;;4871730;29;20245;-88
2024/03/14 05:32:59;;;;;;;4.70;4.40;;;7.20;99.90;;;;;;4876748;29;20518;-88
2024/03/14 05:35:30;;;;;;;3.08;2.88;;;7.20;99.90;;;;;;4890446;29;20252;-87
2024/03/14 05:38:04;;;;;;;2.13;2.03;;;7.20;99.90;;;;;;4878993;29;20206;-88
2024/03/14 05:40:34;;;;;;;9.48;6.25;;;7.20;99.90;;;;;;4888446;29;20216;-87
2024/03/14 05:43:03;;;;;;;9.05;8.55;;;7.20;99.90;;;;;;4887313;29;20205;-88
2024/03/14 05:45:43;;;;;;;2.92;2.83;;;7.20;99.90;;;;;;4881956;29;20221;-87
2024/03/14 05:48:12;;;;;;;4.78;4.50;;;7.30;99.90;;;;;;4869645;29;20272;-87
2024/03/14 05:50:44;;;;;;;7.05;4.97;;;7.30;99.90;;;;;;4866368;29;20256;-91
2024/03/14 05:53:15;;;;;;;4.45;4.22;;;7.30;99.90;;;;;;4878003;29;20244;-90
2024/03/14 05:55:49;;;;;;;2.58;2.47;;;7.30;99.90;;;;;;4842682;29;20247;-91
2024/03/14 05:58:16;;;;;;;7.07;5.43;;;7.30;99.90;;;;;;4845075;29;20519;-90
2024/03/14 06:01:02;;;;;;;3.38;3.10;;;7.30;99.90;;;;;;5065086;23;20205;-91
2024/03/14 06:14:24;;;;;;;5.85;5.40;;;7.50;99.90;;;;;;4870667;29;20275;-89
2024/03/14 06:16:54;;;;;;;3.45;3.35;;;7.60;99.90;;;;;;4872742;29;20238;-87
2024/03/14 06:19:23;;;;;;;9.18;8.18;;;7.60;99.90;;;;;;4873044;29;20262;-90
2024/03/14 06:21:51;;;;;;;8.68;7.97;;;7.80;99.90;;;;;;4874880;29;20198;-93
2024/03/14 06:24:24;;;;;;;4.53;4.22;;;7.80;99.90;;;;;;4875404;29;20210;-91
2024/03/14 06:26:55;;;;;;;5.65;5.22;;;8.10;99.90;;;;;;4883713;29;20205;-91
2024/03/14 06:29:34;;;;;;;10.25;5.97;;;7.80;99.90;;;;;;4913534;23;20240;-85
2024/03/14 06:32:05;;;;;;;6.00;5.47;;;8.10;99.90;;;;;;4898854;29;20208;-87
2024/03/14 06:34:33;;;;;;;7.20;6.68;;;8.20;99.90;;;;;;4883254;29;20214;-86
2024/03/14 06:37:01;;;;;;;1.58;1.52;;;8.30;99.90;;;;;;4869418;29;20531;-87
2024/03/14 06:39:40;;;;;;;4.53;4.25;;;8.40;99.90;;;;;;4858340;29;20224;-88
2024/03/14 06:42:11;;;;;;;5.22;4.50;;;8.50;99.90;;;;;;4860314;29;20209;-86
2024/03/14 06:44:40;;;;;;;3.80;3.50;;;8.60;99.90;;;;;;4867483;29;20214;-87
2024/03/14 06:47:07;;;;;;;5.15;4.72;;;8.70;99.90;;;;;;4862184;29;20265;-87
2024/03/14 06:49:36;;;;;;;4.57;4.38;;;8.80;99.90;;;;;;4861135;29;20230;-84
2024/03/14 06:52:09;;;;;;;5.53;5.22;;;8.70;99.90;;;;;;4879270;29;20274;-91
2024/03/14 06:54:36;;;;;;;2.35;2.25;;;8.90;99.90;;;;;;4866320;29;20211;-86
2024/03/14 06:57:09;;;;;;;7.30;6.78;;;9.10;99.90;;;;;;4869162;29;20214;-85
2024/03/14 06:59:37;;;;;;;3.13;2.95;;;10.20;99.90;;;;;;4868170;29;20549;-85
2024/03/14 07:02:05;;;;;;;3.20;3.10;;;10.80;99.90;;;;;;4878030;29;20209;-86
2024/03/14 07:04:35;;;;;;;3.95;3.75;;;10.80;99.90;;;;;;4871473;29;20272;-87
2024/03/14 07:07:02;;;;;;;6.40;3.38;;;11.00;99.90;;;;;;4871414;29;20204;-87
2024/03/14 07:09:30;;;;;;;5.00;4.78;;;10.90;99.90;;;;;;4884804;29;20236;-84
2024/03/14 07:11:58;;;;;;;5.50;5.10;;;11.50;99.90;;;;;;4887426;29;20192;-86
2024/03/14 07:14:25;;;;;;;6.57;5.93;;;11.80;99.90;;;;;;4901846;29;20499;-85
2024/03/14 07:16:53;;;;;;;4.77;4.40;;;13.10;99.90;;;;;;4884146;29;20459;-84
2024/03/14 07:19:21;;;;;;;2.83;2.70;;;12.30;99.90;;;;;;4879519;29;20420;-87
2024/03/14 07:21:53;;;;;;;7.37;6.63;;;12.70;99.90;;;;;;4878970;29;20460;-86
2024/03/14 07:24:21;;;;;;;5.97;5.50;;;13.80;99.90;;;;;;4873000;29;20452;-88
2024/03/14 07:26:54;;;;;;;7.03;6.63;;;15.00;99.90;;;;;;4880491;29;20429;-85
2024/03/14 07:29:21;;;;;;;4.57;4.17;;;14.70;99.90;;;;;;4877356;29;20451;-85
2024/03/14 07:31:51;;;;;;;5.73;5.37;;;14.90;99.90;;;;;;4866371;29;20420;-86
2024/03/14 07:34:19;;;;;;;3.83;3.63;;;15.60;99.90;;;;;;4872047;29;20462;-86
2024/03/14 07:36:46;;;;;;;2.17;2.07;;;15.00;99.90;;;;;;4870345;29;20456;-84
2024/03/14 07:39:16;;;;;;;4.50;4.20;;;;;;;;;;4869451;29;20455;-85
2024/03/14 07:41:43;;;;;;;3.50;3.30;;;16.00;99.90;;;;;;4871597;29;20468;-86
2024/03/14 07:44:10;;;;;;;3.00;2.90;;;17.40;91.70;;;;;;4866540;29;21042;-85
2024/03/14 07:46:52;;;;;;;2.87;2.77;;;17.70;88.40;;;;;;4868200;29;20472;-84
2024/03/14 07:49:19;;;;;;;2.20;2.10;;;18.60;86.50;;;;;;4883089;29;20481;-85
2024/03/14 07:51:46;;;;;;;10.43;6.33;;;17.20;84.70;;;;;;4872412;29;20476;-86
2024/03/14 07:54:14;;;;;;;4.43;4.13;;;17.00;88.90;;;;;;4866701;29;20972;-84
2024/03/14 07:56:44;;;;;;;4.80;4.40;;;18.90;86.20;;;;;;4865077;29;20456;-85
2024/03/14 07:59:11;;;;;;;4.50;4.20;;;20.40;80.50;;;;;;4871101;29;20446;-85
2024/03/14 08:01:38;;;;;;;4.90;4.53;;;20.30;79.70;;;;;;4868147;29;20482;-85
2024/03/14 08:04:12;;;;;;;4.20;4.00;;;20.10;78.10;;;;;;4861263;29;20457;-84
2024/03/14 08:06:43;;;;;;;5.07;4.60;;;18.20;78.80;;;;;;4870141;29;20450;-85
2024/03/14 08:09:12;;;;;;;4.43;3.97;;;19.10;83.40;;;;;;4864455;29;20441;-85
2024/03/14 08:11:41;;;;;;;2.27;2.17;;;19.50;80.50;;;;;;4875138;29;20454;-86
2024/03/14 08:14:08;;;;;;;4.17;3.60;;;19.60;79.70;;;;;;4864412;29;20738;-83
2024/03/14 08:16:35;;;;;;;4.10;3.80;;;19.90;76.50;;;;;;4873126;29;20455;-82
2024/03/14 08:19:09;;;;;;;2.80;2.70;;;20.00;75.00;;;;;;4872287;29;20526;-84
2024/03/14 08:21:36;;;;;;;5.20;4.57;;;19.90;76.10;;;;;;4870931;29;20473;-84
2024/03/14 08:24:11;;;;;;;4.10;3.80;;;20.40;75.80;;;;;;4872919;29;20469;-84
2024/03/14 08:26:39;;;;;;;3.20;2.90;;;19.40;74.60;;;;;;4884762;29;20527;-84
2024/03/14 08:29:06;;;;;;;2.30;2.20;;;19.40;76.00;;;;;;4875612;29;20524;-84
2024/03/14 08:31:33;;;;;;;5.97;4.27;;;20.00;75.40;;;;;;4876455;29;20516;-84
2024/03/14 08:34:00;;;;;;;5.33;4.93;;;20.60;75.40;;;;;;4869661;29;20489;-84
2024/03/14 08:36:32;;;;;;;3.83;3.53;;;19.50;76.80;;;;;;4864641;29;20592;-84
2024/03/14 08:38:59;;;;;;;2.47;2.37;;;19.90;77.30;;;;;;4877823;29;20460;-84
2024/03/14 08:41:26;;;;;;;4.63;4.30;;;18.70;75.80;;;;;;4884319;29;20496;-85
2024/03/14 08:43:54;;;;;;;4.03;3.17;;;19.10;76.70;;;;;;4895012;29;20519;-85
2024/03/14 08:46:21;;;;;;;2.33;2.23;;;19.60;76.40;;;;;;4891968;29;20456;-84
2024/03/14 08:48:48;;;;;;;3.77;3.47;;;19.10;75.20;;;;;;4883033;29;20431;-84
2024/03/14 08:51:15;;;;;;;3.90;3.67;;;19.30;75.50;;;;;;4887692;29;20453;-86
2024/03/14 08:56:28;;;;;;;5.20;4.00;;;17.70;78.30;;;;;;4879191;29;20465;-85
2024/03/14 08:58:59;;;;;;;4.63;3.87;;;16.80;81.20;;;;;;4878448;29;20416;-84
2024/03/14 09:01:31;;;;;;;4.20;3.50;;;17.20;82.50;;;;;;4890729;29;20750;-84
2024/03/14 09:03:59;;;;;;;4.23;4.03;;;17.50;82.30;;;;;;4872113;29;20480;-83
2024/03/14 09:06:31;;;;;;;3.20;3.10;;;17.10;81.40;;;;;;4879498;29;20881;-83
2024/03/14 09:09:00;;;;;;;1.73;1.63;;;17.00;82.30;;;;;;4868725;29;20451;-85
2024/03/14 09:11:29;;;;;;;3.07;1.90;;;16.60;82.80;;;;;;4867960;29;20442;-84
2024/03/14 09:13:56;;;;;;;2.47;2.37;;;16.40;81.30;;;;;;4862875;29;20609;-84
2024/03/14 09:16:23;;;;;;;4.20;4.00;;;16.70;82.00;;;;;;4871605;29;20556;-84
2024/03/14 09:18:50;;;;;;;5.43;5.03;;;16.70;83.70;;;;;;4871884;29;20509;-84
2024/03/14 09:21:19;;;;;;;4.10;3.80;;;16.60;82.70;;;;;;4870629;29;20450;-84
2024/03/14 09:23:46;;;;;;;5.33;3.00;;;16.40;83.90;;;;;;4870765;29;20454;-84
2024/03/14 09:26:13;;;;;;;2.47;2.37;;;16.60;82.00;;;;;;4870632;29;20896;-85
2024/03/14 09:28:43;;;;;;;2.17;2.03;;;17.20;84.60;;;;;;4869442;29;20765;-85
2024/03/14 09:31:11;;;;;;;2.00;1.90;;;17.60;81.50;;;;;;4868579;29;20775;-83
2024/03/14 09:33:39;;;;;;;2.40;2.27;;;17.60;80.40;;;;;;4875619;29;20512;-85
2024/03/14 09:36:13;;;;;;;2.97;2.67;;;16.70;78.30;;;;;;4866752;29;20470;-83
2024/03/14 09:38:40;;;;;;;3.87;3.67;;;16.50;81.30;;;;;;4874458;29;20450;-84
2024/03/14 09:41:16;;;;;;;6.40;5.97;;;16.30;81.80;;;;;;4880606;29;20450;-85
2024/03/14 09:43:49;;;;;;;2.83;2.70;;;16.30;81.70;;;;;;4889039;29;20448;-84
2024/03/14 09:46:21;;;;;;;3.13;3.00;;;16.30;81.70;;;;;;4874922;29;20453;-84
2024/03/14 09:48:48;;;;;;;2.20;2.10;;;15.90;81.60;;;;;;4869935;29;20424;-85
2024/03/14 09:51:17;;;;;;;2.03;1.93;;;16.10;81.70;;;;;;4871554;29;20456;-83
2024/03/14 09:53:47;;;;;;;4.80;4.50;;;16.20;82.90;;;;;;4875620;29;20787;-84
2024/03/14 09:56:15;;;;;;;3.20;2.90;;;16.00;78.70;;;;;;4865927;29;20453;-84
2024/03/14 09:58:42;;;;;;;0.87;0.87;;;16.10;80.20;;;;;;4869476;29;20423;-83
2024/03/14 10:01:11;;;;;;;1.97;1.87;;;15.80;79.60;;;;;;4873137;29;20430;-85
2024/03/14 10:03:39;;;;;;;3.23;1.40;;;15.60;80.70;;;;;;4860157;29;20630;-83
2024/03/14 10:06:18;;;;;;;4.13;3.73;;;15.70;79.70;;;;;;4874891;29;20525;-85
2024/03/14 10:08:50;;;;;;;1.50;1.50;;;15.60;78.80;;;;;;4868176;29;20455;-84
2024/03/14 10:11:20;;;;;;;4.23;3.93;;;15.30;80.00;;;;;;4868264;29;20416;-85
2024/03/14 10:13:49;;;;;;;2.77;2.57;;;15.70;79.90;;;;;;4867075;29;20469;-82
2024/03/14 10:16:18;;;;;;;1.37;1.37;;;15.80;81.40;;;;;;4880963;29;20552;-83
2024/03/14 10:18:46;;;;;;;3.60;2.73;;;15.40;81.60;;;;;;4884173;29;20666;-85
2024/03/14 10:21:13;;;;;;;2.43;2.33;;;16.00;82.80;;;;;;4868597;29;20481;-84
2024/03/14 10:23:40;;;;;;;1.93;1.83;;;16.00;83.20;;;;;;4878172;29;20446;-84
2024/03/14 10:26:09;;;;;;;1.83;1.73;;;15.50;83.00;;;;;;4868102;29;20443;-84
2024/03/14 10:28:39;;;;;;;2.30;2.20;;;15.40;83.50;;;;;;4868187;29;20462;-85
2024/03/14 10:31:08;;;;;;;2.20;2.10;;;15.80;83.60;;;;;;4877462;29;20437;-84
2024/03/14 10:33:37;;;;;;;4.33;3.73;;;15.80;83.40;;;;;;4875297;29;20492;-83
2024/03/14 10:36:10;;;;;;;3.40;3.10;;;15.90;82.00;;;;;;4861674;29;20418;-84
2024/03/14 10:38:40;;;;;;;4.70;4.40;;;16.10;82.60;;;;;;4873017;29;20445;-85
2024/03/14 10:41:13;;;;;;;2.27;2.17;;;16.20;79.40;;;;;;4859241;29;20442;-84
2024/03/14 10:43:45;;;;;;;2.20;2.00;;;16.50;80.50;;;;;;4861441;29;20428;-83
2024/03/14 10:46:19;;;;;;;5.13;4.80;;;16.20;74.10;;;;;;4859176;29;20429;-82
2024/03/14 10:48:47;;;;;;;1.70;1.60;;;15.50;74.20;;;;;;4865476;29;20434;-85
2024/03/14 10:51:16;;;;;;;3.63;3.37;;;15.40;76.60;;;;;;4865792;29;20453;-86
2024/03/14 10:53:46;;;;;;;3.60;2.37;;;15.90;77.80;;;;;;4877416;29;20470;-83
2024/03/14 10:56:22;;;;;;;2.33;2.23;;;16.10;77.80;;;;;;4876758;29;20417;-84
2024/03/14 10:58:54;;;;;;;1.00;1.00;;;16.40;79.30;;;;;;4869314;29;20728;-85
2024/03/14 11:01:23;;;;;;;1.87;1.80;;;16.50;76.20;;;;;;4875857;29;20424;-83
2024/03/14 11:03:52;;;;;;;2.60;2.50;;;16.20;76.00;;;;;;4865092;29;20628;-82
2024/03/14 11:06:24;;;;;;;4.20;3.30;;;16.30;76.50;;;;;;4879335;29;20435;-83
2024/03/14 11:08:56;;;;;;;2.27;2.17;;;16.70;77.00;;;;;;4864355;29;20773;-83
2024/03/14 11:11:24;;;;;;;1.33;1.33;;;15.80;75.00;;;;;;4866432;29;20458;-80
2024/03/14 11:13:53;;;;;;;1.20;1.20;;;16.00;74.80;;;;;;4872540;29;20489;-83
2024/03/14 11:16:24;;;;;;;2.03;1.93;;;16.50;73.70;;;;;;4871286;29;20499;-85
2024/03/14 11:18:59;;;;;;;2.50;2.40;;;16.80;74.20;;;;;;4865282;29;20473;-85
2024/03/14 11:21:34;;;;;;;1.90;1.80;;;16.40;72.60;;;;;;4869499;29;20454;-84
2024/03/14 11:24:09;;;;;;;2.07;1.97;;;16.40;72.50;;;;;;4867059;29;20448;-84
2024/03/14 11:26:42;;;;;;;1.47;1.47;;;16.70;74.70;;;;;;4868583;29;20486;-86
2024/03/14 11:29:14;;;;;;;2.77;2.57;;;16.70;75.10;;;;;;4877038;29;20485;-84
2024/03/14 11:31:48;;;;;;;2.23;2.03;;;16.50;75.20;;;;;;4878590;29;20425;-83
2024/03/14 11:34:17;;;;;;;3.30;2.57;;;16.90;73.90;;;;;;4876184;29;20465;-83
2024/03/14 11:36:46;;;;;;;2.47;2.27;;;16.40;74.80;;;;;;4880687;29;20472;-85
2024/03/14 11:39:20;;;;;;;2.33;2.23;;;16.30;73.60;;;;;;4884530;29;20429;-82
2024/03/14 11:41:49;;;;;;;1.47;1.43;;;16.10;74.50;;;;;;4882944;29;20434;-83
2024/03/14 11:44:21;;;;;;;1.87;1.80;;;15.70;74.20;;;;;;4893241;29;20425;-84
2024/03/14 11:46:54;;;;;;;3.33;3.20;;;16.30;75.90;;;;;;4875970;29;20453;-84
2024/03/14 11:49:23;;;;;;;1.20;1.20;;;16.30;76.50;;;;;;4870754;29;20478;-83
2024/03/14 11:51:51;;;;;;;2.13;2.03;;;16.60;76.10;;;;;;4867945;29;20486;-84
2024/03/14 11:54:20;;;;;;;1.50;1.50;;;16.80;76.30;;;;;;4870402;29;20485;-84
2024/03/14 11:56:48;;;;;;;2.53;2.20;;;17.10;75.10;;;;;;4859840;29;20455;-84
2024/03/14 11:59:15;;;;;;;3.17;3.07;;;16.90;74.70;;;;;;4861418;29;20452;-83
2024/03/14 12:01:43;;;;;;;2.27;2.13;;;16.80;74.10;;;;;;4866777;29;20500;-85
2024/03/14 12:04:17;;;;;;;2.53;2.43;;;16.70;77.50;;;;;;4880444;29;20457;-84
2024/03/14 12:06:48;;;;;;;11.83;3.47;;;16.00;75.00;;;;;;4878182;29;20447;-83
2024/03/14 12:09:22;;;;;;;1.53;1.50;;;16.50;75.90;;;;;;4886676;29;20451;-82
2024/03/14 12:11:49;;;;;;;3.80;3.50;;;16.50;75.00;;;;;;4871571;29;20777;-85
2024/03/14 12:14:18;;;;;;;1.20;1.20;;;16.80;75.90;;;;;;4870041;29;20846;-85
2024/03/14 12:16:46;;;;;;;1.97;1.87;;;16.70;75.60;;;;;;4881892;29;20758;-82
2024/03/14 12:19:18;;;;;;;4.80;4.43;;;16.10;74.50;;;;;;4880195;29;20673;-85
2024/03/14 12:21:54;;;;;;;2.33;2.23;;;15.90;75.50;;;;;;4878142;29;20438;-84
2024/03/14 12:24:24;;;;;;;2.90;2.70;;;16.30;75.60;;;;;;4871732;29;20431;-83
2024/03/14 12:26:58;;;;;;;3.20;2.93;;;16.20;74.30;;;;;;4866187;29;20423;-85
2024/03/14 12:29:27;;;;;;;1.93;1.83;;;16.20;76.00;;;;;;4875454;29;20434;-84
2024/03/14 12:31:55;;;;;;;1.40;1.40;;;16.10;76.30;;;;;;4864838;29;20426;-84
2024/03/14 12:34:22;;;;;;;3.03;2.27;;;16.10;75.60;;;;;;4866532;29;20491;-83
2024/03/14 12:36:53;;;;;;;1.43;1.43;;;16.10;76.90;;;;;;4855822;29;20488;-82
2024/03/14 12:39:19;;;;;;;1.50;1.50;;;16.20;77.40;;;;;;4878794;29;20467;-81
2024/03/14 12:41:47;;;;;;;2.43;2.30;;;16.20;77.00;;;;;;4886727;29;20511;-87
2024/03/14 12:44:18;;;;;;;1.10;1.10;;;16.30;77.20;;;;;;4871250;29;20457;-84
2024/03/14 12:46:47;;;;;;;1.27;1.27;;;15.80;76.60;;;;;;4882895;29;20469;-82
2024/03/14 12:49:15;;;;;;;1.80;1.70;;;15.50;77.20;;;;;;4884987;29;20500;-83
2024/03/14 12:51:54;;;;;;;10.03;2.80;;;15.80;78.30;;;;;;4880807;29;20438;-86
2024/03/14 12:54:22;;;;;;;3.10;2.90;;;16.00;77.60;;;;;;4875862;29;20491;-85
2024/03/14 12:56:53;;;;;;;1.77;1.47;;;16.00;78.10;;;;;;4882076;29;20425;-85
2024/03/14 12:59:20;;;;;;;1.40;1.40;;;16.40;78.40;;;;;;4880516;29;20422;-84
2024/03/14 13:02:00;;;;;;;1.13;1.13;;;16.00;79.50;;;;;;4875853;29;20436;-84
2024/03/14 13:04:32;;;;;;;1.23;1.17;;;15.90;79.00;;;;;;4878510;29;20442;-84
2024/03/14 13:07:01;;;;;;;2.50;2.40;;;16.10;81.30;;;;;;4882987;29;20508;-84
2024/03/14 13:09:28;;;;;;;5.10;2.30;;;16.10;77.70;;;;;;4880622;29;20520;-85
2024/03/14 13:12:03;;;;;;;2.20;2.10;;;16.30;79.20;;;;;;4879655;29;20427;-84
2024/03/14 13:14:31;;;;;;;3.03;2.73;;;16.30;79.70;;;;;;4870384;29;20489;-84
2024/03/14 13:17:04;;;;;;;1.50;1.40;;;15.80;79.40;;;;;;4881072;29;20492;-83
2024/03/14 13:19:32;;;;;;;1.63;1.63;;;15.90;78.10;;;;;;4869677;29;20447;-84
2024/03/14 13:22:00;;;;;;;1.63;1.53;;;16.20;81.30;;;;;;4870952;29;20422;-84
2024/03/14 13:24:27;;;;;;;1.20;1.20;;;16.30;78.20;;;;;;4865693;29;20426;-85